Puerto Banus, Marbella

>

This is an optional block (switch it off / on) in the settings - file ($SITE['banners'] = false;)

You can display ads, any other important text or photo’s using text / html or PHP code.

You can place one or more at the top and or bottom and it can all be different for content / size .



Meteosat more information blitzortung!


Radar lluvias  rain snow radar


Visita nuestra red de sitios de meteo:

Documentation for the template used

MeteoibericaRed estaciones Meteorologicas

MeteoclimaticRed estaciones Meteorologicas



Viento Desde: 20-04-2018 10:00 Hasta: 21-04-2018 04:59 Advertencias para: Viento Nivel: Amarillo info button

Pagina Historial Weather Underground texto

Diario Resumen January 5, 2018 Unidades:  Mtrico    imprial   Tanto
« Anterior Dia
Siguiente Dia »
Diario Semana Mensual Anual Personalizada
  Maxima: Minima: Media:
Temperatura: -17.8 °C -12.1 °C -9.8 °C
Punto de roco: -17.8 °C -13.9 °C -12.4 °C
Humedad: Humidity % 54 % 74 %
Velocidad del Viento: 0 km/h 3.1 km/h 27.4 km/h
Rfagas de viento: 0 km/h - -
Viento:- - WNW
Pression baro: 0 hPa 34107.2 hPa -
Prcipitaciones: 0 mm    
Historical Graphs
 
 
Datos de tabla para January 5, 2018
Tiempo Temperatura Punto de roco Pression baro Viento Velocidad del Viento Rfagas de viento Humedad Las precipitaciones Rate ( Hora )
-17.8 °C -17.8 °C 0 hPa Calm     Humidity % 0 mm
00:00 -10.4 °C -12.3 °C 34625.2 hPa NNW 15 km/h 15 km/h 79 % 0 mm
00:02 -10.3 °C -12.3 °C 34625.2 hPa NNW 15 km/h 15 km/h 79 % 0 mm
00:07 -10.3 °C -12.3 °C 34625.2 hPa NNW 12.9 km/h 12.9 km/h 79 % 0 mm
00:08 -10.3 °C -12.3 °C 34625.2 hPa NNW 12.9 km/h 12.9 km/h 79 % 0 mm
00:13 -10.4 °C -12.3 °C 34625.2 hPa North 15 km/h 15 km/h 79 % 0 mm
00:15 -10.4 °C -12.3 °C 34625.2 hPa North 11.9 km/h 11.9 km/h 79 % 0 mm
00:17 -10.4 °C -12.3 °C 34625.2 hPa North 11.9 km/h 11.9 km/h 79 % 0 mm
00:22 -10.4 °C -12.3 °C 34625.2 hPa NNW 17.9 km/h 17.9 km/h 79 % 0 mm
00:27 -10.3 °C -12.3 °C 34611.7 hPa NNW 11.9 km/h 11.9 km/h 79 % 0 mm
00:32 -10.3 °C -12.3 °C 34611.7 hPa North 12.9 km/h 12.9 km/h 79 % 0 mm
00:34 -10.3 °C -12.3 °C 34611.7 hPa North 9 km/h 9 km/h 79 % 0 mm
00:39 -10.4 °C -12.3 °C 34611.7 hPa NNW 11.9 km/h 11.9 km/h 79 % 0 mm
00:40 -10.4 °C -12.3 °C 34611.7 hPa NNW 11.9 km/h 11.9 km/h 79 % 0 mm
00:45 -10.4 °C -12.3 °C 34611.7 hPa NNW 9 km/h 9 km/h 79 % 0 mm
00:47 -10.4 °C -12.3 °C 34601.5 hPa NNW 9 km/h 9 km/h 79 % 0 mm
00:52 -10.4 °C -12.3 °C 34601.5 hPa NNW 11.9 km/h 11.9 km/h 79 % 0 mm
00:54 -10.3 °C -12.3 °C 34601.5 hPa NNW 9 km/h 9 km/h 79 % 0 mm
00:59 -10.3 °C -12.3 °C 34601.5 hPa NNW 9 km/h 9 km/h 79 % 0 mm
01:02 -10.3 °C -12.3 °C 34601.5 hPa NNW 11.9 km/h 11.9 km/h 79 % 0 mm
01:07 -10.4 °C -12.3 °C 34601.5 hPa NNW 9 km/h 9 km/h 79 % 0 mm
01:12 -10.4 °C -12.4 °C 34591.4 hPa NNW 9 km/h 9 km/h 78 % 0 mm
01:14 -10.4 °C -12.5 °C 34591.4 hPa NNW 11.9 km/h 11.9 km/h 78 % 0 mm
01:16 -10.4 °C -12.5 °C 34591.4 hPa NNW 12.9 km/h 12.9 km/h 78 % 0 mm
01:22 -10.4 °C -12.6 °C 34591.4 hPa NNW 12.9 km/h 12.9 km/h 78 % 0 mm
01:26 -10.5 °C -12.4 °C 34591.4 hPa North 12.9 km/h 12.9 km/h 79 % 0 mm
01:31 -10.6 °C -12.6 °C 34577.8 hPa North 9 km/h 9.8 km/h 79 % 0 mm
01:33 -10.6 °C -12.6 °C 34577.8 hPa North 12.9 km/h 12.9 km/h 79 % 0 mm
01:36 -10.6 °C -12.6 °C 34577.8 hPa North 12.9 km/h 12.9 km/h 79 % 0 mm
01:40 -10.7 °C -12.6 °C 34577.8 hPa North 15 km/h 15 km/h 80 % 0 mm
01:45 -10.7 °C -12.6 °C 34577.8 hPa North 15 km/h 15 km/h 80 % 0 mm
01:47 -10.7 °C -12.6 °C 34567.7 hPa North 11.9 km/h 11.9 km/h 80 % 0 mm
01:52 -10.7 °C -12.6 °C 34567.7 hPa North 15.6 km/h 15.6 km/h 80 % 0 mm
01:55 -10.8 °C -12.7 °C 34554.1 hPa North 15 km/h 15 km/h 80 % 0 mm
01:58 -10.8 °C -12.7 °C 34554.1 hPa North 15 km/h 15 km/h 80 % 0 mm
02:03 -10.8 °C -12.7 °C 34554.1 hPa North 17.9 km/h 17.9 km/h 80 % 0 mm
02:05 -10.8 °C -12.7 °C 34554.1 hPa North 15 km/h 15 km/h 80 % 0 mm
02:10 -10.8 °C -12.7 °C 34554.1 hPa North 9 km/h 9.3 km/h 80 % 0 mm
02:11 -10.8 °C -12.7 °C 34554.1 hPa North 12.9 km/h 12.9 km/h 80 % 0 mm
02:16 -10.9 °C -12.7 °C 34554.1 hPa North 15.6 km/h 15.6 km/h 81 % 0 mm
02:21 -10.9 °C -12.7 °C 34544 hPa North 15 km/h 15 km/h 81 % 0 mm
02:25 -10.9 °C -12.7 °C 34544 hPa North 15 km/h 15 km/h 81 % 0 mm
02:30 -11 °C -12.7 °C 34544 hPa North 15.6 km/h 15.6 km/h 81 % 0 mm
02:31 -11 °C -12.7 °C 34544 hPa North 15.6 km/h 15.6 km/h 81 % 0 mm
02:36 -11 °C -12.8 °C 34533.8 hPa NNW 15 km/h 15 km/h 81 % 0 mm
02:39 -11 °C -12.8 °C 34533.8 hPa NNW 15 km/h 15 km/h 81 % 0 mm
02:44 -11 °C -12.7 °C 34533.8 hPa North 15 km/h 15 km/h 81 % 0 mm
02:45 -11 °C -12.7 °C 34533.8 hPa NNW 12.9 km/h 12.9 km/h 81 % 0 mm
02:49 -11 °C -12.7 °C 34533.8 hPa North 18.2 km/h 18.2 km/h 81 % 0 mm
02:54 -11 °C -12.8 °C 34533.8 hPa North 17.9 km/h 17.9 km/h 81 % 0 mm
02:55 -11 °C -12.8 °C 34533.8 hPa North 12.9 km/h 18.2 km/h 81 % 0 mm
02:57 -11.1 °C -12.8 °C 34533.8 hPa North 17.9 km/h 17.9 km/h 81 % 0 mm
03:02 -11.1 °C -12.8 °C 34533.8 hPa North 15 km/h 15 km/h 81 % 0 mm
03:04 -11.1 °C -12.9 °C 34533.8 hPa North 15 km/h 15 km/h 81 % 0 mm
03:06 -11.1 °C -12.9 °C 34533.8 hPa North 17.9 km/h 17.9 km/h 81 % 0 mm
03:11 -11.2 °C -12.9 °C 34533.8 hPa NNW 11.9 km/h 11.9 km/h 81 % 0 mm
03:14 -11.1 °C -12.9 °C 34520.3 hPa NNW 15 km/h 15 km/h 81 % 0 mm
03:19 -11.1 °C -12.9 °C 34520.3 hPa NNW 10.3 km/h 10.3 km/h 81 % 0 mm
03:23 -11.1 °C -12.9 °C 34520.3 hPa NNW 15.6 km/h 15.6 km/h 81 % 0 mm
03:28 -11.1 °C -12.8 °C 34520.3 hPa NNW 15 km/h 15 km/h 81 % 0 mm
03:31 -11.1 °C -12.8 °C 34510.1 hPa North 15 km/h 15 km/h 81 % 0 mm
03:36 -11.1 °C -12.9 °C 34520.3 hPa North 17.9 km/h 17.9 km/h 81 % 0 mm
03:41 -11.2 °C -12.9 °C 34520.3 hPa NNW 11.9 km/h 11.9 km/h 81 % 0 mm
03:46 -11.2 °C -12.9 °C 34510.1 hPa North 17.9 km/h 17.9 km/h 81 % 0 mm
03:49 -11.2 °C -13 °C 34510.1 hPa NNW 20.9 km/h 20.9 km/h 81 % 0 mm
03:53 -11.3 °C -13 °C 34510.1 hPa North 17.9 km/h 17.9 km/h 81 % 0 mm
03:54 -11.3 °C -13 °C 34510.1 hPa NNW 15 km/h 15 km/h 81 % 0 mm
03:59 -11.3 °C -13.1 °C 34510.1 hPa NNW 15 km/h 15 km/h 81 % 0 mm
04:00 -11.3 °C -13.1 °C 34510.1 hPa NNW 17.9 km/h 17.9 km/h 81 % 0 mm
04:05 -11.3 °C -13.1 °C 34510.1 hPa North 15 km/h 15 km/h 81 % 0 mm
04:09 -11.3 °C -13.1 °C 34510.1 hPa NNW 15 km/h 15 km/h 81 % 0 mm
04:14 -11.3 °C -12.9 °C 34510.1 hPa NW 9 km/h 9 km/h 82 % 0 mm
04:19 -11.3 °C -12.9 °C 34510.1 hPa NW 7.7 km/h 7.7 km/h 82 % 0 mm
04:25 -11.3 °C -12.9 °C 34510.1 hPa NW 9 km/h   82 % 0 mm
04:30 -11.2 °C -12.9 °C 34510.1 hPa NW 10.3 km/h 10.3 km/h 82 % 0 mm
04:31 -11.2 °C -13 °C 34510.1 hPa NW 11.9 km/h 11.9 km/h 81 % 0 mm
04:34 -11.2 °C -12.9 °C 34510.1 hPa NNW 12.9 km/h 12.9 km/h 81 % 0 mm
04:39 -11.1 °C -12.9 °C 34510.1 hPa NNW 9 km/h 9 km/h 81 % 0 mm
04:40 -11.1 °C -12.9 °C 34510.1 hPa NNW 9 km/h 9 km/h 81 % 0 mm
04:45 -11 °C -12.9 °C 34496.6 hPa NNW 9 km/h 9 km/h 80 % 0 mm
04:50 -10.9 °C -12.8 °C 34496.6 hPa NNW 9 km/h 9 km/h 80 % 0 mm
04:55 -10.9 °C -12.9 °C 34496.6 hPa NNW 9 km/h 9 km/h 79 % 0 mm
04:58 -10.9 °C -12.9 °C 34496.6 hPa NNW 9 km/h 9 km/h 79 % 0 mm
05:03 -10.9 °C -13 °C 34496.6 hPa NNW 9 km/h 9 km/h 78 % 0 mm
05:04 -10.9 °C -12.9 °C 34496.6 hPa NNW 9 km/h 9 km/h 78 % 0 mm
05:09 -10.9 °C -13 °C 34496.6 hPa NNW 9 km/h 9 km/h 78 % 0 mm
05:10 -10.9 °C -13 °C 34496.6 hPa NNW 9 km/h 9 km/h 78 % 0 mm
05:15 -11 °C -13.2 °C 34496.6 hPa NNW 11.9 km/h 11.9 km/h 77 % 0 mm
05:17 -11 °C -13.2 °C 34496.6 hPa NNW 11.9 km/h 11.9 km/h 77 % 0 mm
05:21 -11.1 °C -13.2 °C 34496.6 hPa NNW 10.3 km/h 10.3 km/h 78 % 0 mm
05:26 -11.1 °C -13.2 °C 34486.4 hPa NNW 9 km/h 9 km/h 78 % 0 mm
05:27 -11.1 °C -13.2 °C 34486.4 hPa NNW 9 km/h 9 km/h 78 % 0 mm
05:30 -11.2 °C -13.2 °C 34496.6 hPa NNW 9 km/h 9 km/h 78 % 0 mm
05:32 -11.2 °C -13.3 °C 34496.6 hPa NNW 10.3 km/h 10.3 km/h 78 % 0 mm
05:37 -11.3 °C -13.4 °C 34496.6 hPa NW 12.9 km/h 12.9 km/h 78 % 0 mm
05:38 -11.3 °C -13.4 °C 34496.6 hPa NW 12.9 km/h 12.9 km/h 78 % 0 mm
05:42 -11.3 °C -13.3 °C 34496.6 hPa NNW 12.9 km/h 12.9 km/h 78 % 0 mm
05:44 -11.3 °C -13.4 °C 34486.4 hPa NNW 11.9 km/h 11.9 km/h 78 % 0 mm
05:47 -11.4 °C -13.5 °C 34486.4 hPa NNW 15 km/h 15 km/h 78 % 0 mm
05:49 -11.5 °C -13.6 °C 34486.4 hPa NNW 18.2 km/h 18.2 km/h 78 % 0 mm
05:54 -11.7 °C -13.7 °C 34486.4 hPa North 15.6 km/h 15.6 km/h 79 % 0 mm
05:59 -11.8 °C -13.7 °C 34486.4 hPa NNW 9 km/h 9 km/h 80 % 0 mm
06:00 -11.8 °C -13.6 °C 34486.4 hPa NNW 10.3 km/h 10.3 km/h 81 % 0 mm
06:05 -11.8 °C -13.6 °C 34486.4 hPa NNW 17.9 km/h 17.9 km/h 81 % 0 mm
06:06 -11.8 °C -13.6 °C 34486.4 hPa NNW 17.9 km/h 17.9 km/h 81 % 0 mm
06:11 -11.8 °C -13.6 °C 34486.4 hPa NNW 15 km/h 15 km/h 81 % 0 mm
06:15 -11.8 °C -13.6 °C 34486.4 hPa NNW 10.3 km/h 10.3 km/h 81 % 0 mm
06:20 -11.8 °C -13.6 °C 34486.4 hPa NNW 10.3 km/h 10.3 km/h 81 % 0 mm
06:25 -11.9 °C -13.7 °C 34486.4 hPa North 15 km/h 15 km/h 81 % 0 mm
06:27 -11.9 °C -13.7 °C 34486.4 hPa North 15.6 km/h 15.6 km/h 81 % 0 mm
06:32 -12 °C -13.7 °C 34486.4 hPa NNW 17.9 km/h 17.9 km/h 82 % 0 mm
06:36 -12 °C -13.7 °C 34486.4 hPa North 20.9 km/h 20.9 km/h 82 % 0 mm
06:38 -12 °C -13.7 °C 34486.4 hPa North 17.9 km/h 17.9 km/h 82 % 0 mm
06:39 -12.1 °C -13.7 °C 34486.4 hPa North 15 km/h 15 km/h 82 % 0 mm
06:42 -12.1 °C -13.7 °C 34486.4 hPa North 17.9 km/h 17.9 km/h 82 % 0 mm
06:47 -12.1 °C -13.7 °C 34486.4 hPa NNW 20.9 km/h 20.9 km/h 82 % 0 mm
06:52 -12.1 °C -13.7 °C 34486.4 hPa NNW 11.9 km/h 11.9 km/h 82 % 0 mm
06:57 -12.1 °C -13.7 °C 34486.4 hPa NNW 11.9 km/h 11.9 km/h 82 % 0 mm
06:58 -12.1 °C -13.7 °C 34486.4 hPa NNW 12.9 km/h 12.9 km/h 82 % 0 mm
07:03 -12 °C -13.6 °C 34486.4 hPa NNW 15.6 km/h 15.6 km/h 82 % 0 mm
07:04 -12 °C -13.6 °C 34486.4 hPa NNW 15 km/h 15 km/h 82 % 0 mm
07:09 -11.9 °C -13.6 °C 34486.4 hPa NNW 10.3 km/h 10.3 km/h 82 % 0 mm
07:10 -11.9 °C -13.6 °C 34486.4 hPa NNW 9 km/h 9 km/h 82 % 0 mm
07:15 -11.9 °C -13.7 °C 34486.4 hPa NNW 9 km/h 9 km/h 81 % 0 mm
07:19 -11.9 °C -13.7 °C 34496.6 hPa NNW 10.3 km/h 10.3 km/h 81 % 0 mm
07:24 -11.9 °C -13.6 °C 34496.6 hPa NNW 10.3 km/h 10.3 km/h 81 % 0 mm
07:29 -11.9 °C -13.6 °C 34496.6 hPa WNW 9 km/h 9 km/h 81 % 0 mm
07:32 -11.9 °C -13.6 °C 34496.6 hPa WNW 6 km/h 6 km/h 81 % 0 mm
07:35 -12 °C -13.8 °C 34496.6 hPa NW 6 km/h 6 km/h 80 % 0 mm
07:40 -12 °C -13.7 °C 34496.6 hPa NW 6 km/h 6 km/h 81 % 0 mm
07:42 -12.1 °C -13.8 °C 34496.6 hPa NW 9 km/h 9 km/h 81 % 0 mm
07:43 -12.1 °C -13.8 °C 34496.6 hPa NW 9 km/h 9 km/h 81 % 0 mm
07:48 -12.1 °C -13.8 °C 34486.4 hPa NW 9 km/h 9 km/h 81 % 0 mm
07:53 -12 °C -13.7 °C 34486.4 hPa North 17.9 km/h 17.9 km/h 81 % 0 mm
07:55 -12 °C -13.8 °C 34486.4 hPa NNW 15 km/h 15 km/h 80 % 0 mm
08:00 -12 °C -13.8 °C 34486.4 hPa NNW 17.9 km/h 17.9 km/h 80 % 0 mm
08:04 -12 °C -13.8 °C 34486.4 hPa North 9 km/h 9 km/h 80 % 0 mm
08:06 -12 °C -13.8 °C 34486.4 hPa North 12.9 km/h 12.9 km/h 80 % 0 mm
08:11 -12.1 °C -13.9 °C 34486.4 hPa NNW 17.9 km/h 17.9 km/h 80 % 0 mm
08:16 -12.1 °C -13.8 °C 34486.4 hPa NW 20.9 km/h 20.9 km/h 81 % 0 mm
08:17 -12.1 °C -13.8 °C 34486.4 hPa NNW 17.9 km/h 17.9 km/h 81 % 0 mm
08:22 -12.1 °C -13.8 °C 34486.4 hPa North 20.9 km/h 20.9 km/h 81 % 0 mm
08:23 -12.1 °C -13.8 °C 34486.4 hPa North 23.8 km/h 23.8 km/h 81 % 0 mm
08:25 -12.1 °C -13.8 °C 34486.4 hPa North 17.9 km/h 17.9 km/h 81 % 0 mm
08:30 -12.1 °C -13.8 °C 34486.4 hPa North 23.8 km/h 23.8 km/h 81 % 0 mm
08:31 -12.1 °C -13.8 °C 34486.4 hPa North 23.8 km/h 23.8 km/h 81 % 0 mm
08:36 -12.1 °C -13.8 °C 34486.4 hPa North 23.8 km/h 23.8 km/h 81 % 0 mm
08:41 -12.1 °C -13.8 °C 34486.4 hPa NNW 23.8 km/h 23.8 km/h 81 % 0 mm
08:46 -12.1 °C -13.8 °C 34486.4 hPa North 23.8 km/h 23.8 km/h 81 % 0 mm
08:49 -12 °C -13.7 °C 34486.4 hPa North 23.8 km/h 23.8 km/h 81 % 0 mm
08:52 -12 °C -13.7 °C 34486.4 hPa WNW 20.9 km/h 20.9 km/h 81 % 0 mm
08:57 -11.9 °C -13.6 °C 34476.3 hPa North 28.5 km/h 28.5 km/h 81 % 0 mm
09:02 -11.4 °C -13.2 °C 34476.3 hPa NNW 17.9 km/h 17.9 km/h 81 % 0 mm
09:03 -11.4 °C -13.2 °C 34476.3 hPa NNW 11.9 km/h 11.9 km/h 81 % 0 mm
09:08 -11.3 °C -13.2 °C 34476.3 hPa NNW 12.9 km/h 12.9 km/h 79 % 0 mm
09:10 -11.2 °C -13.2 °C 34486.4 hPa North 20.9 km/h 20.9 km/h 79 % 0 mm
09:14 -11.2 °C -13.2 °C 34486.4 hPa NNW 9 km/h 9 km/h 78 % 0 mm
09:18 -11.1 °C -13.2 °C 34486.4 hPa NNW 10.3 km/h 10.3 km/h 78 % 0 mm
09:20 -11.1 °C -13.2 °C 34486.4 hPa NNW 17.9 km/h 17.9 km/h 78 % 0 mm
09:24 -11 °C -13.2 °C 34486.4 hPa North 15.6 km/h 15.6 km/h 77 % 0 mm
09:26 -11 °C -13.3 °C 34476.3 hPa North 17.9 km/h 17.9 km/h 76 % 0 mm
09:30 -11.1 °C -13.4 °C 34476.3 hPa NNW 17.9 km/h 17.9 km/h 75 % 0 mm
09:32 -11.1 °C -13.4 °C 34486.4 hPa North 26.9 km/h 26.9 km/h 76 % 0 mm
09:35 -11.2 °C -13.6 °C 34476.3 hPa North 20.9 km/h 20.9 km/h 75 % 0 mm
09:40 -11.2 °C -13.4 °C 34486.4 hPa NNW 15 km/h 15 km/h 76 % 0 mm
09:43 -11.1 °C -13.4 °C 34486.4 hPa North 15 km/h 15 km/h 76 % 0 mm
09:48 -10.9 °C -13.2 °C 34486.4 hPa North 17.9 km/h 17.9 km/h 76 % 0 mm
09:50 -10.9 °C -13.2 °C 34486.4 hPa North 9 km/h 9 km/h 76 % 0 mm
09:51 -10.8 °C -13.1 °C 34476.3 hPa NNW 9 km/h 9 km/h 76 % 0 mm
09:55 -10.7 °C -13.1 °C 34476.3 hPa North 15 km/h 15 km/h 75 % 0 mm
10:00 -10.6 °C -13 °C 34476.3 hPa North 6 km/h 6 km/h 75 % 0 mm
10:05 -10.4 °C -12.9 °C 34476.3 hPa North 9 km/h 9 km/h 75 % 0 mm
10:06 -10.4 °C -12.8 °C 34476.3 hPa North 10.3 km/h 10.3 km/h 75 % 0 mm
10:12 -10.3 °C -12.9 °C 34476.3 hPa NNE 15 km/h 15 km/h 73 % 0 mm
10:17 -10.3 °C -12.9 °C 34476.3 hPa NNE 6 km/h 6 km/h 73 % 0 mm
10:22 -10.2 °C -12.8 °C 34476.3 hPa NNE 3.1 km/h 3.1 km/h 73 % 0 mm
10:27 -10 °C -12.7 °C 34476.3 hPa NNE 9 km/h 9 km/h 73 % 0 mm
10:28 -9.9 °C -12.6 °C 34476.3 hPa NNE 9 km/h 9 km/h 73 % 0 mm
10:31 -9.9 °C -12.7 °C 34476.3 hPa NE 15 km/h 15 km/h 72 % 0 mm
10:36 -9.9 °C -12.6 °C 34462.7 hPa NE 11.9 km/h 11.9 km/h 73 % 0 mm
10:37 -9.8 °C -12.5 °C 34462.7 hPa NE 9 km/h 9 km/h 73 % 0 mm
10:42 -9.7 °C -12.2 °C 34462.7 hPa NW 17.9 km/h 17.9 km/h 74 % 0 mm
10:47 -9.4 °C -12.2 °C 34462.7 hPa West 44.7 km/h 44.7 km/h 72 % 0 mm
10:50 -9.1 °C -12.1 °C 34462.7 hPa West 33.6 km/h 33.6 km/h 70 % 0 mm
10:51 -9 °C -12.1 °C 34462.7 hPa West 28.5 km/h 28.5 km/h 70 % 0 mm
10:56 -8.7 °C -12.1 °C 34462.7 hPa WSW 23.8 km/h 23.8 km/h 67 % 0 mm
10:57 -8.7 °C -12.1 °C 34462.7 hPa West 23.3 km/h 23.3 km/h 67 % 0 mm
11:02 -8.5 °C -12.2 °C 34462.7 hPa WSW 31.1 km/h 31.1 km/h 65 % 0 mm
11:07 -8.4 °C -12.2 °C 34462.7 hPa WSW 38.8 km/h 38.8 km/h 64 % 0 mm
11:08 -8.4 °C -12.2 °C 34462.7 hPa WSW 44.7 km/h 44.7 km/h 64 % 0 mm
11:10 -8.3 °C -12.3 °C 34462.7 hPa WSW 38.8 km/h 38.8 km/h 63 % 0 mm
11:13 -8.3 °C -12.3 °C 34462.7 hPa WSW 23.8 km/h 23.8 km/h 63 % 0 mm
11:16 -8.3 °C -12.2 °C 34452.6 hPa WSW 35.7 km/h 35.7 km/h 63 % 0 mm
11:21 -8.2 °C -12.2 °C 34452.6 hPa WSW 44.7 km/h 44.7 km/h 63 % 0 mm
11:26 -8.3 °C -11.9 °C 34452.6 hPa WSW 44.7 km/h 44.7 km/h 65 % 0 mm
11:31 -8.4 °C -11.6 °C 34452.6 hPa WSW 35.7 km/h 35.7 km/h 69 % 0 mm
11:33 -8.5 °C -11.8 °C 34452.6 hPa West 38.8 km/h 38.8 km/h 68 % 0 mm
11:36 -8.5 °C -11.9 °C 34452.6 hPa West 31.1 km/h 31.1 km/h 67 % 0 mm
11:41 -8.3 °C -12.3 °C 34452.6 hPa SW 41.7 km/h 41.7 km/h 63 % 0 mm
11:46 -8.2 °C -12.3 °C 34442.4 hPa WSW 44.7 km/h 44.7 km/h 62 % 0 mm
11:47 -8.2 °C -12.4 °C 34442.4 hPa West 41.7 km/h 41.7 km/h 61 % 0 mm
11:51 -8.1 °C -12.2 °C 34442.4 hPa West 41.7 km/h 41.7 km/h 62 % 0 mm
11:57 -8.2 °C -11.9 °C 34442.4 hPa WSW 41.4 km/h 41.4 km/h 65 % 0 mm
11:58 -8.2 °C -11.9 °C 34442.4 hPa WSW 46.7 km/h 46.7 km/h 65 % 0 mm
11:59 -8.2 °C -12.1 °C 34428.8 hPa West 47.6 km/h 47.6 km/h 64 % 0 mm
12:04 -8.3 °C -11.8 °C 34428.8 hPa WSW 47.6 km/h 47.6 km/h 66 % 0 mm
12:05 -8.3 °C -11.8 °C 34428.8 hPa West 38.8 km/h 38.8 km/h 66 % 0 mm
12:06 -8.3 °C -11.9 °C 34428.8 hPa WSW 38.8 km/h 38.8 km/h 66 % 0 mm
12:11 -8.3 °C -11.9 °C 34418.7 hPa West 35.7 km/h 35.7 km/h 65 % 0 mm
12:16 -8.1 °C -12.2 °C 34418.7 hPa West 35.7 km/h 35.7 km/h 62 % 0 mm
12:17 -8 °C -12.3 °C 34418.7 hPa WNW 35.7 km/h 35.7 km/h 61 % 0 mm
12:21 -7.9 °C -12.2 °C 34405.1 hPa WNW 35.7 km/h 35.7 km/h 61 % 0 mm
12:25 -7.9 °C -12.3 °C 34405.1 hPa West 50.7 km/h 50.7 km/h 60 % 0 mm
12:31 -7.9 °C -12.4 °C 34395 hPa WNW 20.9 km/h 20.9 km/h 59 % 0 mm
12:32 -7.9 °C -12.4 °C 34395 hPa WSW 20.8 km/h 20.8 km/h 59 % 0 mm
12:37 -7.9 °C -12.6 °C 34395 hPa WNW 35.7 km/h 35.7 km/h 58 % 0 mm
12:39 -7.9 °C -12.6 °C 34395 hPa West 29.8 km/h 29.8 km/h 58 % 0 mm
12:41 -7.9 °C -12.6 °C 34395 hPa West 35.7 km/h 35.7 km/h 58 % 0 mm
12:44 -7.9 °C -12.6 °C 34395 hPa WSW 29.8 km/h 29.8 km/h 58 % 0 mm
12:49 -7.8 °C -12.5 °C 34384.8 hPa West 23.8 km/h 23.8 km/h 58 % 0 mm
12:54 -7.8 °C -12.4 °C 34384.8 hPa West 20.9 km/h 20.9 km/h 58 % 0 mm
12:57 -7.7 °C -12.6 °C 34371.3 hPa WNW 33.6 km/h 33.6 km/h 57 % 0 mm
13:00 -7.7 °C -12.7 °C 34371.3 hPa West 38.8 km/h 38.8 km/h 56 % 0 mm
13:02 -7.7 °C -12.7 °C 34371.3 hPa WNW 38.8 km/h 38.8 km/h 56 % 0 mm
13:07 -7.7 °C -12.6 °C 34371.3 hPa WNW 41.7 km/h 41.7 km/h 56 % 0 mm
13:10 -7.7 °C -12.6 °C 34361.1 hPa West 20.9 km/h 20.9 km/h 56 % 0 mm
13:13 -7.7 °C -12.8 °C 34361.1 hPa West 32.8 km/h 33.2 km/h 55 % 0 mm
13:18 -7.6 °C -12.7 °C 34361.1 hPa West 26.9 km/h 26.9 km/h 55 % 0 mm
13:23 -7.6 °C -12.9 °C 34347.6 hPa West 38.8 km/h 38.8 km/h 54 % 0 mm
13:28 -7.6 °C -12.7 °C 34347.6 hPa West 38.8 km/h 38.8 km/h 55 % 0 mm
13:33 -7.6 °C -12.7 °C 34347.6 hPa West 35.7 km/h 35.7 km/h 55 % 0 mm
13:35 -7.6 °C -12.7 °C 34337.4 hPa West 32.8 km/h 32.8 km/h 55 % 0 mm
13:36 -7.6 °C -12.7 °C 34337.4 hPa West 32.8 km/h 32.8 km/h 55 % 0 mm
13:41 -7.6 °C -12.7 °C 34337.4 hPa WSW 38.8 km/h 38.8 km/h 55 % 0 mm
13:46 -7.6 °C -12.7 °C 34337.4 hPa West 29.8 km/h 29.8 km/h 55 % 0 mm
13:51 -7.5 °C -12.8 °C 34337.4 hPa WSW 33.6 km/h 33.6 km/h 54 % 0 mm
13:53 -7.5 °C -12.6 °C 34327.3 hPa WSW 50.7 km/h 50.7 km/h 55 % 0 mm
13:54 -7.5 °C -12.6 °C 34327.3 hPa WSW 50.7 km/h 50.7 km/h 55 % 0 mm
13:59 -7.6 °C -12.4 °C 34327.3 hPa WSW 38.8 km/h 38.8 km/h 57 % 0 mm
14:04 -7.6 °C -12.4 °C 34313.7 hPa WSW 29.8 km/h 29.8 km/h 57 % 0 mm
14:08 -7.6 °C -12.6 °C 34313.7 hPa West 44.7 km/h 44.7 km/h 56 % 0 mm
14:12 -7.6 °C -12.4 °C 34313.7 hPa West 41.7 km/h 41.7 km/h 57 % 0 mm
14:17 -7.6 °C -12.4 °C 34303.6 hPa WSW 47.6 km/h 47.6 km/h 57 % 0 mm
14:20 -7.7 °C -12.4 °C 34303.6 hPa West 59.5 km/h 59.5 km/h 58 % 0 mm
14:25 -7.8 °C -12.3 °C 34303.6 hPa WSW 53.6 km/h 53.6 km/h 59 % 0 mm
14:30 -8 °C -12.4 °C 34303.6 hPa West 62.6 km/h 62.6 km/h 60 % 0 mm
14:33 -8.1 °C -12.3 °C 34303.6 hPa West 59.5 km/h 59.5 km/h 61 % 0 mm
14:36 -8.1 °C -12.3 °C 34303.6 hPa WSW 56.6 km/h 56.6 km/h 61 % 0 mm
14:40 -8 °C -12.4 °C 34293.4 hPa West 44.7 km/h 44.7 km/h 60 % 0 mm
14:45 -7.8 °C -12.4 °C 34293.4 hPa West 50.7 km/h 50.7 km/h 58 % 0 mm
14:50 -7.6 °C -12.6 °C 34293.4 hPa WSW 38.8 km/h 38.8 km/h 56 % 0 mm
14:55 -7.5 °C -12.4 °C 34279.9 hPa West 33.6 km/h 33.6 km/h 56 % 0 mm
14:58 -7.4 °C -12.4 °C 34279.9 hPa SW 29.8 km/h 29.8 km/h 56 % 0 mm
14:59 -7.4 °C -12.4 °C 34279.9 hPa West 29.8 km/h 29.8 km/h 56 % 0 mm
15:04 -7.4 °C -12.5 °C 34279.9 hPa West 44.7 km/h 44.7 km/h 55 % 0 mm
15:08 -7.4 °C -12.6 °C 34279.9 hPa West 29.8 km/h 29.8 km/h 55 % 0 mm
15:09 -7.4 °C -12.6 °C 34279.9 hPa West 32.8 km/h 32.8 km/h 55 % 0 mm
15:15 -7.5 °C -12.6 °C 34269.7 hPa West 31.1 km/h 41.4 km/h 55 % 0 mm
15:16 -7.6 °C -12.7 °C 34279.9 hPa WSW 56.6 km/h 56.6 km/h 55 % 0 mm
15:22 -7.6 °C -12.6 °C 34269.7 hPa West 35.7 km/h 35.7 km/h 56 % 0 mm
15:27 -7.6 °C -12.7 °C 34269.7 hPa West 29.8 km/h 29.8 km/h 55 % 0 mm
15:32 -7.5 °C -12.4 °C 34269.7 hPa West 50.7 km/h 50.7 km/h 56 % 0 mm
15:34 -7.6 °C -12.2 °C 34269.7 hPa WSW 50.7 km/h 50.7 km/h 58 % 0 mm
15:39 -7.9 °C -12.3 °C 34269.7 hPa WSW 50.7 km/h 50.7 km/h 60 % 0 mm
15:40 -7.9 °C -12.1 °C 34269.7 hPa WSW 41.7 km/h 41.7 km/h 61 % 0 mm
15:46 -8.1 °C -11.7 °C 34269.7 hPa West 53.6 km/h 53.6 km/h 66 % 0 mm
15:51 -8.4 °C -11.4 °C 34269.7 hPa WSW 49.2 km/h 49.2 km/h 70 % 0 mm
15:55 -8.4 °C -11.4 °C 34279.9 hPa WSW 62.1 km/h 62.1 km/h 71 % 0 mm
16:00 -8.6 °C -11.3 °C 34269.7 hPa WSW 59.5 km/h 59.5 km/h 73 % 0 mm
16:03 -8.6 °C -11.2 °C 34269.7 hPa WSW 53.6 km/h 53.6 km/h 74 % 0 mm
16:08 -8.7 °C -11.3 °C 34269.7 hPa WSW 59.5 km/h 59.5 km/h 74 % 0 mm
16:13 -8.7 °C -11.3 °C 34269.7 hPa SW 62.6 km/h 62.6 km/h 74 % 0 mm
16:18 -8.7 °C -11.3 °C 34269.7 hPa WSW 68.6 km/h 68.6 km/h 74 % 0 mm
16:23 -8.8 °C -11.3 °C 34269.7 hPa WSW 65.5 km/h 65.5 km/h 74 % 0 mm
16:24 -8.8 °C -11.2 °C 34269.7 hPa West 56.6 km/h 56.6 km/h 75 % 0 mm
16:29 -8.8 °C -11.3 °C 34269.7 hPa West 65.5 km/h 65.5 km/h 75 % 0 mm
16:35 -8.8 °C -11.3 °C 34256.2 hPa WSW 44.1 km/h 75.2 km/h 75 % 0 mm
16:40 -8.8 °C -11.3 °C 34256.2 hPa WSW 53.6 km/h 53.6 km/h 75 % 0 mm
16:45 -8.8 °C -11.3 °C 34256.2 hPa WSW 47.6 km/h 47.6 km/h 75 % 0 mm
16:47 -8.8 °C -11.3 °C 34256.2 hPa SW 47.6 km/h 47.6 km/h 75 % 0 mm
16:48 -8.8 °C -11.3 °C 34256.2 hPa WSW 62.6 km/h 62.6 km/h 75 % 0 mm
16:54 -8.8 °C -11.3 °C 34256.2 hPa West 47.6 km/h 47.6 km/h 75 % 0 mm
16:59 -8.8 °C -11.3 °C 34256.2 hPa WSW 53.6 km/h 53.6 km/h 75 % 0 mm
17:01 -8.8 °C -11.3 °C 34256.2 hPa WSW 50.7 km/h 50.7 km/h 75 % 0 mm
17:06 -8.8 °C -11.3 °C 34246 hPa West 54.4 km/h 54.4 km/h 75 % 0 mm
17:11 -8.8 °C -11.3 °C 34246 hPa West 54.4 km/h 54.4 km/h 74 % 0 mm
17:16 -8.7 °C -11.3 °C 34256.2 hPa West 50.7 km/h 50.7 km/h 73 % 0 mm
17:21 -8.7 °C -11.3 °C 34246 hPa WSW 50.7 km/h 50.7 km/h 73 % 0 mm
17:27 -8.7 °C -11.4 °C 34246 hPa West 44.7 km/h 44.7 km/h 73 % 0 mm
17:28 -8.7 °C -11.4 °C 34246 hPa WSW 38.8 km/h 38.8 km/h 73 % 0 mm
17:34 -8.8 °C -11.4 °C 34246 hPa West 44.7 km/h 44.7 km/h 73 % 0 mm
17:36 -8.8 °C -11.4 °C 34246 hPa West 35.7 km/h 35.7 km/h 73 % 0 mm
17:41 -8.8 °C -11.6 °C 34246 hPa WSW 50.7 km/h 50.7 km/h 72 % 0 mm
17:43 -8.8 °C -11.6 °C 34246 hPa West 35.7 km/h 35.7 km/h 72 % 0 mm
17:48 -8.8 °C -11.7 °C 34246 hPa West 50.7 km/h 50.7 km/h 71 % 0 mm
17:52 -8.8 °C -11.7 °C 34235.8 hPa West 41.7 km/h 41.7 km/h 71 % 0 mm
17:54 -8.8 °C -11.7 °C 34246 hPa WSW 53.6 km/h 53.6 km/h 71 % 0 mm
17:59 -8.8 °C -11.8 °C 34235.8 hPa WNW 44.7 km/h 44.7 km/h 71 % 0 mm
18:01 -8.8 °C -11.8 °C 34235.8 hPa West 38.8 km/h 38.8 km/h 71 % 0 mm
18:05 -8.8 °C -11.9 °C 34235.8 hPa WSW 35.7 km/h 35.7 km/h 70 % 0 mm
18:10 -8.8 °C -11.9 °C 34235.8 hPa West 20.9 km/h 20.9 km/h 70 % 0 mm
18:12 -8.8 °C -11.9 °C 34235.8 hPa West 29.8 km/h 29.8 km/h 70 % 0 mm
18:18 -8.9 °C -11.9 °C 34235.8 hPa WSW 18.2 km/h 18.2 km/h 70 % 0 mm
18:23 -8.9 °C -11.8 °C 34235.8 hPa WSW 38.8 km/h 38.8 km/h 71 % 0 mm
18:27 -9 °C -11.9 °C 34235.8 hPa West 23.8 km/h 23.8 km/h 71 % 0 mm
18:32 -9 °C -11.9 °C 34235.8 hPa West 29.8 km/h 29.8 km/h 71 % 0 mm
18:37 -9 °C -11.9 °C 34222.3 hPa West 35.7 km/h 35.7 km/h 71 % 0 mm
18:40 -9 °C -11.9 °C 34222.3 hPa West 15.6 km/h 36.2 km/h 71 % 0 mm
18:45 -9.1 °C -12 °C 34222.3 hPa West 35.7 km/h 35.7 km/h 71 % 0 mm
18:50 -9.1 °C -11.9 °C 34222.3 hPa West 38.8 km/h 38.8 km/h 72 % 0 mm
18:55 -9.1 °C -12 °C 34212.1 hPa West 41.7 km/h 41.7 km/h 71 % 0 mm
18:58 -9.1 °C -12 °C 34212.1 hPa West 35.7 km/h 35.7 km/h 71 % 0 mm
19:03 -9.1 °C -12 °C 34222.3 hPa WSW 35.7 km/h 35.7 km/h 71 % 0 mm
19:04 -9.1 °C -12 °C 34212.1 hPa West 35.7 km/h 35.7 km/h 71 % 0 mm
19:09 -9.1 °C -11.8 °C 34212.1 hPa WSW 44.7 km/h 44.7 km/h 73 % 0 mm
19:12 -9.1 °C -11.8 °C 34222.3 hPa WSW 50.7 km/h 50.7 km/h 73 % 0 mm
19:13 -9.1 °C -11.7 °C 34222.3 hPa WSW 50.7 km/h 50.7 km/h 74 % 0 mm
19:18 -9.1 °C -11.8 °C 34222.3 hPa WNW 68.6 km/h 68.6 km/h 73 % 0 mm
19:19 -9.1 °C -11.8 °C 34212.1 hPa West 59.5 km/h 59.5 km/h 73 % 0 mm
19:20 -9.1 °C -11.8 °C 34212.1 hPa WSW 49.2 km/h 49.2 km/h 73 % 0 mm
19:25 -9.1 °C -11.8 °C 34212.1 hPa West 29.8 km/h 29.8 km/h 73 % 0 mm
19:27 -9.1 °C -11.8 °C 34212.1 hPa West 41.7 km/h 41.7 km/h 73 % 0 mm
19:30 -9.1 °C -11.8 °C 34212.1 hPa WSW 35.7 km/h 35.7 km/h 73 % 0 mm
19:32 -9.1 °C -11.8 °C 34212.1 hPa WSW 41.7 km/h 41.7 km/h 73 % 0 mm
19:37 -9.2 °C -11.8 °C 34212.1 hPa WSW 38.8 km/h 38.8 km/h 73 % 0 mm
19:38 -9.2 °C -11.8 °C 34212.1 hPa West 35.7 km/h 35.7 km/h 73 % 0 mm
19:43 -9.2 °C -11.8 °C 34212.1 hPa West 29.8 km/h 29.8 km/h 74 % 0 mm
19:44 -9.2 °C -11.8 °C 34212.1 hPa West 32.8 km/h 32.8 km/h 74 % 0 mm
19:49 -9.3 °C -11.8 °C 34212.1 hPa West 32.8 km/h 32.8 km/h 74 % 0 mm
19:50 -9.3 °C -11.8 °C 34212.1 hPa West 32.8 km/h 32.8 km/h 74 % 0 mm
19:55 -9.3 °C -11.8 °C 34212.1 hPa WSW 28.5 km/h 28.5 km/h 74 % 0 mm
19:59 -9.3 °C -11.8 °C 34198.6 hPa West 38.8 km/h 38.8 km/h 74 % 0 mm
20:04 -9.3 °C -11.8 °C 34198.6 hPa West 26.9 km/h 26.9 km/h 74 % 0 mm
20:09 -9.3 °C -11.8 °C 34198.6 hPa WSW 35.7 km/h 35.7 km/h 74 % 0 mm
20:14 -9.3 °C -11.8 °C 34198.6 hPa West 29.8 km/h 29.8 km/h 74 % 0 mm
20:15 -9.3 °C -11.8 °C 34198.6 hPa WSW 28.5 km/h 28.5 km/h 74 % 0 mm
20:16 -9.3 °C -11.8 °C 34198.6 hPa WSW 31.1 km/h 31.1 km/h 74 % 0 mm
20:21 -9.3 °C -11.8 °C 34198.6 hPa West 29.8 km/h 29.8 km/h 74 % 0 mm
20:26 -9.3 °C -11.8 °C 34198.6 hPa West 29.8 km/h 29.8 km/h 74 % 0 mm
20:27 -9.3 °C -11.8 °C 34198.6 hPa WSW 29.8 km/h 29.8 km/h 74 % 0 mm
20:31 -9.3 °C -11.7 °C 34198.6 hPa WSW 20.9 km/h 20.9 km/h 75 % 0 mm
20:33 -9.3 °C -11.7 °C 34198.6 hPa West 23.8 km/h 23.8 km/h 75 % 0 mm
20:38 -9.3 °C -11.7 °C 34198.6 hPa West 29.8 km/h 29.8 km/h 75 % 0 mm
20:39 -9.3 °C -11.7 °C 34188.4 hPa WSW 31.1 km/h 31.1 km/h 75 % 0 mm
20:44 -9.3 °C -11.7 °C 34188.4 hPa WSW 29.8 km/h 29.8 km/h 75 % 0 mm
20:48 -9.3 °C -11.7 °C 34188.4 hPa WSW 29.8 km/h 29.8 km/h 75 % 0 mm
20:53 -9.3 °C -11.6 °C 34188.4 hPa WSW 29.8 km/h 29.8 km/h 76 % 0 mm
20:58 -9.3 °C -11.6 °C 34178.3 hPa West 29.8 km/h 29.8 km/h 76 % 0 mm
20:59 -9.3 °C -11.6 °C 34178.3 hPa WSW 29.8 km/h 29.8 km/h 76 % 0 mm
21:04 -9.3 °C -11.6 °C 34188.4 hPa WSW 29.8 km/h 29.8 km/h 76 % 0 mm
21:06 -9.3 °C -11.6 °C 34178.3 hPa SW 26.9 km/h 26.9 km/h 76 % 0 mm
21:12 -9.3 °C -11.6 °C 34178.3 hPa WSW 20.9 km/h 20.9 km/h 76 % 0 mm
21:15 -9.3 °C -11.6 °C 34178.3 hPa West 18.2 km/h 23.3 km/h 77 % 0 mm
21:17 -9.3 °C -11.6 °C 34178.3 hPa West 15 km/h 15 km/h 77 % 0 mm
21:20 -9.3 °C -11.6 °C 34178.3 hPa West 20.9 km/h 20.9 km/h 77 % 0 mm
21:23 -9.3 °C -11.6 °C 34178.3 hPa West 20.9 km/h 20.9 km/h 77 % 0 mm
21:27 -9.3 °C -11.6 °C 34178.3 hPa WSW 23.8 km/h 23.8 km/h 77 % 0 mm
21:35 -9.3 °C -11.4 °C 34178.3 hPa WSW 23.8 km/h 23.8 km/h 78 % 0 mm
21:40 -9.3 °C -11.2 °C 34178.3 hPa WSW 20.8 km/h 20.8 km/h 80 % 0 mm
21:45 -9.3 °C -11.2 °C 34164.7 hPa WSW 29.8 km/h 29.8 km/h 80 % 0 mm
21:50 -9.4 °C -11.3 °C 34164.7 hPa WSW 32.8 km/h 32.8 km/h 80 % 0 mm
21:53 -9.4 °C -11.2 °C 34164.7 hPa West 41.7 km/h 41.7 km/h 81 % 0 mm
21:58 -9.4 °C -11.2 °C 34164.7 hPa WSW 44.7 km/h 44.7 km/h 81 % 0 mm
21:59 -9.4 °C -11.2 °C 34164.7 hPa WSW 41.7 km/h 41.7 km/h 81 % 0 mm
22:01 -9.4 °C -11.2 °C 34178.3 hPa WSW 50.7 km/h 50.7 km/h 81 % 0 mm
22:06 -9.4 °C -11.3 °C 34164.7 hPa WSW 38.8 km/h 38.8 km/h 80 % 0 mm
22:09 -9.4 °C -11.3 °C 34164.7 hPa SW 41.7 km/h 41.7 km/h 80 % 0 mm
22:10 -9.4 °C -11.2 °C 34164.7 hPa West 41.7 km/h 41.7 km/h 81 % 0 mm
22:14 -9.4 °C -11.2 °C 34154.6 hPa WSW 35.7 km/h 35.7 km/h 81 % 0 mm
22:19 -9.4 °C -11.2 °C 34154.6 hPa WSW 38.8 km/h 38.8 km/h 81 % 0 mm
22:21 -9.4 °C -11.2 °C 34154.6 hPa WSW 35.7 km/h 35.7 km/h 81 % 0 mm
22:22 -9.4 °C -11.2 °C 34154.6 hPa WSW 35.7 km/h 35.7 km/h 81 % 0 mm
22:27 -9.4 °C -11.2 °C 34154.6 hPa WSW 35.7 km/h 35.7 km/h 81 % 0 mm
22:30 -9.4 °C -11.2 °C 34144.4 hPa WSW 38.8 km/h 38.8 km/h 81 % 0 mm
22:31 -9.4 °C -11.2 °C 34144.4 hPa WSW 38.8 km/h 38.8 km/h 81 % 0 mm
22:36 -9.5 °C -11.3 °C 34144.4 hPa WSW 29.8 km/h 29.8 km/h 81 % 0 mm
22:37 -9.5 °C -11.3 °C 34144.4 hPa West 26.9 km/h 26.9 km/h 81 % 0 mm
22:42 -9.5 °C -11.3 °C 34144.4 hPa WSW 29.8 km/h 29.8 km/h 81 % 0 mm
22:46 -9.5 °C -11.4 °C 34144.4 hPa WSW 38.8 km/h 38.8 km/h 80 % 0 mm
22:49 -9.5 °C -11.4 °C 34144.4 hPa WSW 35.7 km/h 35.7 km/h 80 % 0 mm
22:54 -9.5 °C -11.3 °C 34144.4 hPa West 35.7 km/h 35.7 km/h 81 % 0 mm
22:55 -9.4 °C -11.2 °C 34144.4 hPa WSW 35.7 km/h 35.7 km/h 81 % 0 mm
22:59 -9.4 °C -11.2 °C 34130.9 hPa West 35.7 km/h 35.7 km/h 81 % 0 mm
23:02 -9.4 °C -11.2 °C 34130.9 hPa West 35.7 km/h 35.7 km/h 81 % 0 mm
23:07 -9.5 °C -11.3 °C 34130.9 hPa WSW 44.1 km/h 44.1 km/h 81 % 0 mm
23:12 -9.5 °C -11.3 °C 34130.9 hPa West 41.7 km/h 41.7 km/h 81 % 0 mm
23:17 -9.5 °C -11.3 °C 34130.9 hPa WSW 35.7 km/h 35.7 km/h 81 % 0 mm
23:18 -9.5 °C -11.3 °C 34130.9 hPa West 31.1 km/h 31.1 km/h 81 % 0 mm
23:23 -9.5 °C -11.3 °C 34120.7 hPa WSW 38.8 km/h 38.8 km/h 81 % 0 mm
23:28 -9.4 °C -11.2 °C 34120.7 hPa West 41.7 km/h 41.7 km/h 81 % 0 mm
23:31 -9.5 °C -11.4 °C 34120.7 hPa WNW 41.7 km/h 41.7 km/h 80 % 0 mm
23:35 -9.5 °C -11.4 °C 34120.7 hPa WSW 44.1 km/h 44.1 km/h 80 % 0 mm
23:37 -9.5 °C -11.4 °C 34120.7 hPa WSW 49.2 km/h 49.2 km/h 80 % 0 mm
23:41 -9.5 °C -11.3 °C 34107.2 hPa WSW 49.2 km/h 49.2 km/h 81 % 0 mm
23:46 -9.5 °C -11.3 °C 34107.2 hPa WSW 44.7 km/h 44.7 km/h 81 % 0 mm
23:50 -9.5 °C -11.3 °C 34107.2 hPa WSW 36.2 km/h 51.8 km/h 81 % 0 mm
23:55 -9.5 °C -11.4 °C 34107.2 hPa West 50.7 km/h 50.7 km/h 80 % 0 mm
23:56 -9.5 °C -11.4 °C 34107.2 hPa West 50.7 km/h 50.7 km/h 80 % 0 mm
Puerto Banus, Marbella
Elogios de Weather Underground - 2.75 mb

Guin original por  Jim McMurry - jmcmurry@mwt.net Adaptado para la plantilla por  Wim van der Kuil - Leuven-Template.eu

Usted encontrar nuestra informacin del tiempo tambin en:

Weather Underground

Iberian Peninsula Weather Network